sensor_id;sensor_type;location;lat;lon;timestamp;temperature;humidity
19586;DHT22;9939;49.246;9.106;2022-08-01T00:00:09;21.60;99.90
19586;DHT22;9939;49.246;9.106;2022-08-01T00:02:37;21.60;99.90
19586;DHT22;9939;49.246;9.106;2022-08-01T00:05:08;21.60;99.90
19586;DHT22;9939;49.246;9.106;2022-08-01T00:07:35;21.70;99.90
19586;DHT22;9939;49.246;9.106;2022-08-01T00:10:08;21.70;99.90
19586;DHT22;9939;49.246;9.106;2022-08-01T00:12:36;21.80;99.90
19586;DHT22;9939;49.246;9.106;2022-08-01T00:15:04;21.70;99.90
19586;DHT22;9939;49.246;9.106;2022-08-01T00:17:32;21.70;99.90
19586;DHT22;9939;49.246;9.106;2022-08-01T00:19:59;21.70;99.90
19586;DHT22;9939;49.246;9.106;2022-08-01T00:22:26;21.70;99.90
19586;DHT22;9939;49.246;9.106;2022-08-01T00:24:53;21.70;99.90
19586;DHT22;9939;49.246;9.106;2022-08-01T00:27:20;21.70;99.90
19586;DHT22;9939;49.246;9.106;2022-08-01T00:29:47;21.60;99.90
19586;DHT22;9939;49.246;9.106;2022-08-01T00:32:34;21.60;99.90
19586;DHT22;9939;49.246;9.106;2022-08-01T00:35:01;21.40;99.90
19586;DHT22;9939;49.246;9.106;2022-08-01T00:37:28;21.30;99.90
19586;DHT22;9939;49.246;9.106;2022-08-01T00:39:54;21.10;99.90
19586;DHT22;9939;49.246;9.106;2022-08-01T00:42:22;21.20;99.90
19586;DHT22;9939;49.246;9.106;2022-08-01T00:44:48;21.20;99.90
19586;DHT22;9939;49.246;9.106;2022-08-01T00:47:15;21.10;99.90
19586;DHT22;9939;49.246;9.106;2022-08-01T00:49:42;21.10;99.90
19586;DHT22;9939;49.246;9.106;2022-08-01T00:52:10;21.00;99.90
19586;DHT22;9939;49.246;9.106;2022-08-01T00:54:37;21.00;99.90
19586;DHT22;9939;49.246;9.106;2022-08-01T00:57:04;20.90;99.90
19586;DHT22;9939;49.246;9.106;2022-08-01T00:59:36;20.80;99.90
19586;DHT22;9939;49.246;9.106;2022-08-01T01:02:05;20.80;99.90
19586;DHT22;9939;49.246;9.106;2022-08-01T01:04:41;20.90;99.90
19586;DHT22;9939;49.246;9.106;2022-08-01T01:07:20;20.90;99.90
19586;DHT22;9939;49.246;9.106;2022-08-01T01:10:03;20.80;99.90
19586;DHT22;9939;49.246;9.106;2022-08-01T01:12:35;20.80;99.90
19586;DHT22;9939;49.246;9.106;2022-08-01T01:15:26;20.70;99.90
19586;DHT22;9939;49.246;9.106;2022-08-01T01:20:41;20.60;99.90
19586;DHT22;9939;49.246;9.106;2022-08-01T01:23:28;20.50;99.90
19586;DHT22;9939;49.246;9.106;2022-08-01T01:31:43;20.40;99.90
19586;DHT22;9939;49.246;9.106;2022-08-01T01:34:12;20.40;99.90
19586;DHT22;9939;49.246;9.106;2022-08-01T01:36:40;20.30;99.90
19586;DHT22;9939;49.246;9.106;2022-08-01T01:39:08;20.40;99.90
19586;DHT22;9939;49.246;9.106;2022-08-01T01:41:37;20.20;99.90
19586;DHT22;9939;49.246;9.106;2022-08-01T01:44:05;20.10;99.90
19586;DHT22;9939;49.246;9.106;2022-08-01T01:46:33;20.20;99.90
19586;DHT22;9939;49.246;9.106;2022-08-01T01:49:01;20.20;99.90
19586;DHT22;9939;49.246;9.106;2022-08-01T01:51:28;20.00;99.90
19586;DHT22;9939;49.246;9.106;2022-08-01T01:53:57;20.10;99.90
19586;DHT22;9939;49.246;9.106;2022-08-01T01:56:26;20.10;99.90
19586;DHT22;9939;49.246;9.106;2022-08-01T01:59:00;20.00;99.90
19586;DHT22;9939;49.246;9.106;2022-08-01T02:01:29;19.90;99.90
19586;DHT22;9939;49.246;9.106;2022-08-01T02:04:18;20.10;99.90
19586;DHT22;9939;49.246;9.106;2022-08-01T02:06:47;20.00;99.90
19586;DHT22;9939;49.246;9.106;2022-08-01T02:09:18;20.10;99.90
19586;DHT22;9939;49.246;9.106;2022-08-01T02:11:47;20.10;99.90
19586;DHT22;9939;49.246;9.106;2022-08-01T02:14:35;20.00;99.90
19586;DHT22;9939;49.246;9.106;2022-08-01T02:17:02;19.80;99.90
19586;DHT22;9939;49.246;9.106;2022-08-01T02:19:33;19.70;99.90
19586;DHT22;9939;49.246;9.106;2022-08-01T02:22:31;19.60;99.90
19586;DHT22;9939;49.246;9.106;2022-08-01T02:25:12;19.60;99.90
19586;DHT22;9939;49.246;9.106;2022-08-01T02:27:45;19.60;99.90
19586;DHT22;9939;49.246;9.106;2022-08-01T02:30:15;19.50;99.90
19586;DHT22;9939;49.246;9.106;2022-08-01T02:32:48;19.50;99.90
19586;DHT22;9939;49.246;9.106;2022-08-01T02:35:37;19.70;99.90
19586;DHT22;9939;49.246;9.106;2022-08-01T02:38:27;19.70;99.90
19586;DHT22;9939;49.246;9.106;2022-08-01T02:40:58;19.70;99.90
19586;DHT22;9939;49.246;9.106;2022-08-01T02:43:28;19.60;99.90
19586;DHT22;9939;49.246;9.106;2022-08-01T02:46:01;19.50;99.90
19586;DHT22;9939;49.246;9.106;2022-08-01T02:48:30;19.40;99.90
19586;DHT22;9939;49.246;9.106;2022-08-01T02:51:01;19.40;99.90
19586;DHT22;9939;49.246;9.106;2022-08-01T02:53:32;19.40;99.90
19586;DHT22;9939;49.246;9.106;2022-08-01T02:56:10;19.40;99.90
19586;DHT22;9939;49.246;9.106;2022-08-01T02:58:39;19.40;99.90
19586;DHT22;9939;49.246;9.106;2022-08-01T03:01:08;19.30;99.90
19586;DHT22;9939;49.246;9.106;2022-08-01T03:03:37;19.40;99.90
19586;DHT22;9939;49.246;9.106;2022-08-01T03:06:05;19.30;99.90
19586;DHT22;9939;49.246;9.106;2022-08-01T03:08:33;19.20;99.90
19586;DHT22;9939;49.246;9.106;2022-08-01T03:11:01;19.30;99.90
19586;DHT22;9939;49.246;9.106;2022-08-01T03:13:30;19.30;99.90
19586;DHT22;9939;49.246;9.106;2022-08-01T03:15:59;19.10;99.90
19586;DHT22;9939;49.246;9.106;2022-08-01T03:18:28;19.10;99.90
19586;DHT22;9939;49.246;9.106;2022-08-01T03:20:58;19.20;99.90
19586;DHT22;9939;49.246;9.106;2022-08-01T03:23:29;19.20;99.90
19586;DHT22;9939;49.246;9.106;2022-08-01T03:26:05;19.10;99.90
19586;DHT22;9939;49.246;9.106;2022-08-01T03:28:32;19.00;99.90
19586;DHT22;9939;49.246;9.106;2022-08-01T03:31:00;19.00;99.90
19586;DHT22;9939;49.246;9.106;2022-08-01T03:33:28;19.10;99.90
19586;DHT22;9939;49.246;9.106;2022-08-01T03:35:55;19.10;99.90
19586;DHT22;9939;49.246;9.106;2022-08-01T03:38:26;18.90;99.90
19586;DHT22;9939;49.246;9.106;2022-08-01T03:40:59;18.80;99.90
19586;DHT22;9939;49.246;9.106;2022-08-01T03:43:33;18.90;99.90
19586;DHT22;9939;49.246;9.106;2022-08-01T03:46:06;18.80;99.90
19586;DHT22;9939;49.246;9.106;2022-08-01T03:48:40;18.70;99.90
19586;DHT22;9939;49.246;9.106;2022-08-01T03:51:10;18.70;99.90
19586;DHT22;9939;49.246;9.106;2022-08-01T03:53:41;18.70;99.90
19586;DHT22;9939;49.246;9.106;2022-08-01T03:56:09;18.70;99.90
19586;DHT22;9939;49.246;9.106;2022-08-01T03:58:39;18.70;99.90
19586;DHT22;9939;49.246;9.106;2022-08-01T04:01:07;18.70;99.90
19586;DHT22;9939;49.246;9.106;2022-08-01T04:03:43;18.70;99.90
19586;DHT22;9939;49.246;9.106;2022-08-01T04:06:10;18.80;99.90
19586;DHT22;9939;49.246;9.106;2022-08-01T04:08:38;18.70;99.90
19586;DHT22;9939;49.246;9.106;2022-08-01T04:11:07;18.80;99.90
19586;DHT22;9939;49.246;9.106;2022-08-01T04:13:34;18.90;99.90
19586;DHT22;9939;49.246;9.106;2022-08-01T04:16:03;18.80;99.90
19586;DHT22;9939;49.246;9.106;2022-08-01T04:18:29;18.90;99.90
19586;DHT22;9939;49.246;9.106;2022-08-01T04:20:56;18.90;99.90
19586;DHT22;9939;49.246;9.106;2022-08-01T04:23:25;19.00;99.90
19586;DHT22;9939;49.246;9.106;2022-08-01T04:25:54;19.10;99.90
19586;DHT22;9939;49.246;9.106;2022-08-01T04:28:22;19.10;99.90
19586;DHT22;9939;49.246;9.106;2022-08-01T04:30:53;19.10;99.90
19586;DHT22;9939;49.246;9.106;2022-08-01T04:33:28;19.20;99.90
19586;DHT22;9939;49.246;9.106;2022-08-01T04:35:58;19.30;99.90
19586;DHT22;9939;49.246;9.106;2022-08-01T04:38:33;19.50;99.90
19586;DHT22;9939;49.246;9.106;2022-08-01T04:41:04;19.50;99.90
19586;DHT22;9939;49.246;9.106;2022-08-01T04:43:36;19.60;99.90
19586;DHT22;9939;49.246;9.106;2022-08-01T04:46:03;19.70;99.90
19586;DHT22;9939;49.246;9.106;2022-08-01T04:48:32;19.80;99.90
19586;DHT22;9939;49.246;9.106;2022-08-01T04:51:00;19.80;99.90
19586;DHT22;9939;49.246;9.106;2022-08-01T04:53:27;19.90;99.90
19586;DHT22;9939;49.246;9.106;2022-08-01T04:55:54;19.90;99.90
19586;DHT22;9939;49.246;9.106;2022-08-01T04:58:22;19.90;99.90
19586;DHT22;9939;49.246;9.106;2022-08-01T05:00:49;19.90;99.90
19586;DHT22;9939;49.246;9.106;2022-08-01T05:03:16;19.90;99.90
19586;DHT22;9939;49.246;9.106;2022-08-01T05:05:43;19.90;99.90
19586;DHT22;9939;49.246;9.106;2022-08-01T05:08:10;19.90;99.90
19586;DHT22;9939;49.246;9.106;2022-08-01T05:10:37;19.90;99.90
19586;DHT22;9939;49.246;9.106;2022-08-01T05:13:04;20.10;99.90
19586;DHT22;9939;49.246;9.106;2022-08-01T05:15:31;20.20;99.90
19586;DHT22;9939;49.246;9.106;2022-08-01T05:17:58;20.10;99.90
19586;DHT22;9939;49.246;9.106;2022-08-01T05:20:24;20.10;99.90
19586;DHT22;9939;49.246;9.106;2022-08-01T05:22:51;20.20;99.90
19586;DHT22;9939;49.246;9.106;2022-08-01T05:25:19;20.30;99.90
19586;DHT22;9939;49.246;9.106;2022-08-01T05:28:06;20.50;99.90
19586;DHT22;9939;49.246;9.106;2022-08-01T05:30:34;20.60;99.90
19586;DHT22;9939;49.246;9.106;2022-08-01T05:33:01;20.70;99.90
19586;DHT22;9939;49.246;9.106;2022-08-01T05:35:28;20.80;99.90
19586;DHT22;9939;49.246;9.106;2022-08-01T05:38:15;21.00;99.90
19586;DHT22;9939;49.246;9.106;2022-08-01T05:40:42;21.20;99.90
19586;DHT22;9939;49.246;9.106;2022-08-01T05:43:09;21.40;99.90
19586;DHT22;9939;49.246;9.106;2022-08-01T05:45:36;21.50;99.90
19586;DHT22;9939;49.246;9.106;2022-08-01T05:48:03;21.40;99.90
19586;DHT22;9939;49.246;9.106;2022-08-01T05:50:30;21.50;99.90
19586;DHT22;9939;49.246;9.106;2022-08-01T05:52:59;21.60;99.90
19586;DHT22;9939;49.246;9.106;2022-08-01T05:55:26;21.80;99.90
19586;DHT22;9939;49.246;9.106;2022-08-01T05:57:52;21.90;99.90
19586;DHT22;9939;49.246;9.106;2022-08-01T06:00:19;22.00;99.90
19586;DHT22;9939;49.246;9.106;2022-08-01T06:02:46;22.20;99.90
19586;DHT22;9939;49.246;9.106;2022-08-01T06:05:13;22.40;99.90
19586;DHT22;9939;49.246;9.106;2022-08-01T06:07:40;22.60;99.90
19586;DHT22;9939;49.246;9.106;2022-08-01T06:10:07;22.70;99.90
19586;DHT22;9939;49.246;9.106;2022-08-01T06:12:35;22.80;99.90
19586;DHT22;9939;49.246;9.106;2022-08-01T06:15:04;22.60;99.90
19586;DHT22;9939;49.246;9.106;2022-08-01T06:17:31;22.90;99.90
19586;DHT22;9939;49.246;9.106;2022-08-01T06:19:58;22.90;99.90
19586;DHT22;9939;49.246;9.106;2022-08-01T06:22:26;22.90;99.90
19586;DHT22;9939;49.246;9.106;2022-08-01T06:24:53;22.90;99.90
19586;DHT22;9939;49.246;9.106;2022-08-01T06:27:20;23.10;99.90
19586;DHT22;9939;49.246;9.106;2022-08-01T06:29:48;23.40;99.90
19586;DHT22;9939;49.246;9.106;2022-08-01T06:32:23;23.50;99.90
19586;DHT22;9939;49.246;9.106;2022-08-01T06:34:54;23.60;99.90
19586;DHT22;9939;49.246;9.106;2022-08-01T06:37:22;23.70;99.90
19586;DHT22;9939;49.246;9.106;2022-08-01T06:39:49;23.90;99.90
19586;DHT22;9939;49.246;9.106;2022-08-01T06:42:16;23.90;99.90
19586;DHT22;9939;49.246;9.106;2022-08-01T06:44:44;24.00;99.90
19586;DHT22;9939;49.246;9.106;2022-08-01T06:47:11;23.70;99.90
19586;DHT22;9939;49.246;9.106;2022-08-01T06:49:38;23.90;99.90
19586;DHT22;9939;49.246;9.106;2022-08-01T06:52:05;24.00;99.90
19586;DHT22;9939;49.246;9.106;2022-08-01T06:54:33;24.20;99.90
19586;DHT22;9939;49.246;9.106;2022-08-01T06:57:00;24.20;99.90
19586;DHT22;9939;49.246;9.106;2022-08-01T06:59:27;24.20;99.90
19586;DHT22;9939;49.246;9.106;2022-08-01T07:01:53;24.00;99.90
19586;DHT22;9939;49.246;9.106;2022-08-01T07:04:20;24.10;99.90
19586;DHT22;9939;49.246;9.106;2022-08-01T07:06:47;23.70;99.90
19586;DHT22;9939;49.246;9.106;2022-08-01T07:09:14;23.40;99.90
19586;DHT22;9939;49.246;9.106;2022-08-01T07:11:41;23.10;99.90
19586;DHT22;9939;49.246;9.106;2022-08-01T07:14:08;23.00;99.90
19586;DHT22;9939;49.246;9.106;2022-08-01T07:16:35;23.00;99.90
19586;DHT22;9939;49.246;9.106;2022-08-01T07:19:02;23.00;99.90
19586;DHT22;9939;49.246;9.106;2022-08-01T07:21:29;23.10;99.90
19586;DHT22;9939;49.246;9.106;2022-08-01T07:24:13;23.20;99.90
19586;DHT22;9939;49.246;9.106;2022-08-01T07:26:47;23.50;99.90
19586;DHT22;9939;49.246;9.106;2022-08-01T07:29:23;23.80;99.90
19586;DHT22;9939;49.246;9.106;2022-08-01T07:31:55;24.10;99.90
19586;DHT22;9939;49.246;9.106;2022-08-01T07:34:23;24.30;99.90
19586;DHT22;9939;49.246;9.106;2022-08-01T07:36:51;24.30;99.90
19586;DHT22;9939;49.246;9.106;2022-08-01T07:39:18;24.20;99.90
19586;DHT22;9939;49.246;9.106;2022-08-01T07:41:45;24.50;99.90
19586;DHT22;9939;49.246;9.106;2022-08-01T07:44:32;24.70;99.90
19586;DHT22;9939;49.246;9.106;2022-08-01T07:46:59;25.10;99.90
19586;DHT22;9939;49.246;9.106;2022-08-01T07:49:26;25.30;99.90
19586;DHT22;9939;49.246;9.106;2022-08-01T07:51:53;25.10;99.90
19586;DHT22;9939;49.246;9.106;2022-08-01T07:54:39;25.10;99.90
19586;DHT22;9939;49.246;9.106;2022-08-01T07:57:06;24.90;99.90
19586;DHT22;9939;49.246;9.106;2022-08-01T07:59:34;24.70;99.90
19586;DHT22;9939;49.246;9.106;2022-08-01T08:02:01;24.50;99.90
19586;DHT22;9939;49.246;9.106;2022-08-01T08:04:28;24.70;99.90
19586;DHT22;9939;49.246;9.106;2022-08-01T08:06:55;24.90;99.90
19586;DHT22;9939;49.246;9.106;2022-08-01T08:09:22;25.00;99.90
19586;DHT22;9939;49.246;9.106;2022-08-01T08:11:49;25.30;99.90
19586;DHT22;9939;49.246;9.106;2022-08-01T08:14:17;25.50;99.90
19586;DHT22;9939;49.246;9.106;2022-08-01T08:16:44;25.90;99.90
19586;DHT22;9939;49.246;9.106;2022-08-01T08:19:12;26.30;99.90
19586;DHT22;9939;49.246;9.106;2022-08-01T08:21:39;26.10;99.90
19586;DHT22;9939;49.246;9.106;2022-08-01T08:24:10;25.90;99.90
19586;DHT22;9939;49.246;9.106;2022-08-01T08:26:55;26.30;99.90
19586;DHT22;9939;49.246;9.106;2022-08-01T08:29:23;26.70;99.90
19586;DHT22;9939;49.246;9.106;2022-08-01T08:31:53;26.70;99.90
19586;DHT22;9939;49.246;9.106;2022-08-01T08:34:23;26.90;99.90
19586;DHT22;9939;49.246;9.106;2022-08-01T08:36:50;27.10;99.90
19586;DHT22;9939;49.246;9.106;2022-08-01T08:39:17;27.10;99.90
19586;DHT22;9939;49.246;9.106;2022-08-01T08:41:46;26.80;99.90
19586;DHT22;9939;49.246;9.106;2022-08-01T08:44:16;26.80;99.90
19586;DHT22;9939;49.246;9.106;2022-08-01T08:46:45;26.80;99.90
19586;DHT22;9939;49.246;9.106;2022-08-01T08:49:20;27.40;99.90
19586;DHT22;9939;49.246;9.106;2022-08-01T08:51:49;27.90;99.90
19586;DHT22;9939;49.246;9.106;2022-08-01T08:54:18;28.40;99.90
19586;DHT22;9939;49.246;9.106;2022-08-01T08:56:47;29.00;99.90
19586;DHT22;9939;49.246;9.106;2022-08-01T08:59:14;29.00;99.90
19586;DHT22;9939;49.246;9.106;2022-08-01T09:01:42;29.60;99.90
19586;DHT22;9939;49.246;9.106;2022-08-01T09:04:09;29.90;99.90
19586;DHT22;9939;49.246;9.106;2022-08-01T09:06:36;29.90;99.90
19586;DHT22;9939;49.246;9.106;2022-08-01T09:09:04;30.00;99.90
19586;DHT22;9939;49.246;9.106;2022-08-01T09:11:31;30.20;99.90
19586;DHT22;9939;49.246;9.106;2022-08-01T09:16:31;32.40;99.90
19586;DHT22;9939;49.246;9.106;2022-08-01T09:19:10;32.40;99.90
19586;DHT22;9939;49.246;9.106;2022-08-01T09:21:59;31.20;99.90
19586;DHT22;9939;49.246;9.106;2022-08-01T09:24:30;32.10;99.90
19586;DHT22;9939;49.246;9.106;2022-08-01T09:26:58;31.60;99.90
19586;DHT22;9939;49.246;9.106;2022-08-01T09:29:30;31.40;99.90
19586;DHT22;9939;49.246;9.106;2022-08-01T09:32:06;31.10;99.90
19586;DHT22;9939;49.246;9.106;2022-08-01T09:34:41;30.30;99.90
19586;DHT22;9939;49.246;9.106;2022-08-01T09:37:09;29.50;99.90
19586;DHT22;9939;49.246;9.106;2022-08-01T09:39:37;29.50;99.90
19586;DHT22;9939;49.246;9.106;2022-08-01T09:42:23;30.60;99.90
19586;DHT22;9939;49.246;9.106;2022-08-01T09:44:55;30.50;99.90
19586;DHT22;9939;49.246;9.106;2022-08-01T09:47:37;31.00;99.90
19586;DHT22;9939;49.246;9.106;2022-08-01T09:50:05;31.40;99.90
19586;DHT22;9939;49.246;9.106;2022-08-01T09:52:37;31.40;99.90
19586;DHT22;9939;49.246;9.106;2022-08-01T09:55:07;30.30;99.90
19586;DHT22;9939;49.246;9.106;2022-08-01T09:57:34;29.90;99.90
19586;DHT22;9939;49.246;9.106;2022-08-01T10:00:02;30.70;99.90
19586;DHT22;9939;49.246;9.106;2022-08-01T10:02:39;31.70;99.80
19586;DHT22;9939;49.246;9.106;2022-08-01T10:05:09;33.40;98.00
19586;DHT22;9939;49.246;9.106;2022-08-01T10:07:59;34.00;96.90
19586;DHT22;9939;49.246;9.106;2022-08-01T10:10:26;34.20;96.30
19586;DHT22;9939;49.246;9.106;2022-08-01T10:12:58;34.30;96.00
19586;DHT22;9939;49.246;9.106;2022-08-01T10:15:26;34.90;95.40
19586;DHT22;9939;49.246;9.106;2022-08-01T10:18:05;34.60;95.40
19586;DHT22;9939;49.246;9.106;2022-08-01T10:20:52;35.70;94.10
19586;DHT22;9939;49.246;9.106;2022-08-01T10:23:26;37.00;93.20
19586;DHT22;9939;49.246;9.106;2022-08-01T10:26:08;35.90;92.20
19586;DHT22;9939;49.246;9.106;2022-08-01T10:28:36;36.00;92.80
19586;DHT22;9939;49.246;9.106;2022-08-01T10:31:07;37.20;91.60
19586;DHT22;9939;49.246;9.106;2022-08-01T10:33:39;37.10;90.90
19586;DHT22;9939;49.246;9.106;2022-08-01T10:36:21;35.80;91.30
19586;DHT22;9939;49.246;9.106;2022-08-01T10:38:53;35.30;92.00
19586;DHT22;9939;49.246;9.106;2022-08-01T10:41:21;34.40;92.70
19586;DHT22;9939;49.246;9.106;2022-08-01T10:43:48;33.60;93.30
19586;DHT22;9939;49.246;9.106;2022-08-01T10:46:16;33.50;94.20
19586;DHT22;9939;49.246;9.106;2022-08-01T10:48:54;33.70;93.80
19586;DHT22;9939;49.246;9.106;2022-08-01T10:51:22;33.20;93.90
19586;DHT22;9939;49.246;9.106;2022-08-01T10:54:12;32.40;94.70
19586;DHT22;9939;49.246;9.106;2022-08-01T10:56:47;32.00;95.30
19586;DHT22;9939;49.246;9.106;2022-08-01T10:59:26;31.30;95.60
19586;DHT22;9939;49.246;9.106;2022-08-01T11:02:31;31.10;96.10
19586;DHT22;9939;49.246;9.106;2022-08-01T11:07:42;32.20;95.80
19586;DHT22;9939;49.246;9.106;2022-08-01T11:12:43;31.90;95.40
19586;DHT22;9939;49.246;9.106;2022-08-01T11:17:39;31.10;96.20
19586;DHT22;9939;49.246;9.106;2022-08-01T11:20:20;31.00;96.30
19586;DHT22;9939;49.246;9.106;2022-08-01T11:28:32;30.40;97.10
19586;DHT22;9939;49.246;9.106;2022-08-01T11:41:28;31.90;95.90
19586;DHT22;9939;49.246;9.106;2022-08-01T11:44:10;31.50;95.90
19586;DHT22;9939;49.246;9.106;2022-08-01T11:46:52;31.60;96.00
19586;DHT22;9939;49.246;9.106;2022-08-01T11:52:09;30.60;96.70
19586;DHT22;9939;49.246;9.106;2022-08-01T11:57:14;29.40;97.80
19586;DHT22;9939;49.246;9.106;2022-08-01T11:59:45;29.50;98.00
19586;DHT22;9939;49.246;9.106;2022-08-01T12:02:37;29.00;98.40
19586;DHT22;9939;49.246;9.106;2022-08-01T12:05:13;29.30;98.60
19586;DHT22;9939;49.246;9.106;2022-08-01T12:07:42;29.90;97.80
19586;DHT22;9939;49.246;9.106;2022-08-01T12:10:13;30.30;97.40
19586;DHT22;9939;49.246;9.106;2022-08-01T12:12:52;30.40;97.50
19586;DHT22;9939;49.246;9.106;2022-08-01T12:15:21;30.60;97.30
19586;DHT22;9939;49.246;9.106;2022-08-01T12:17:56;31.20;96.90
19586;DHT22;9939;49.246;9.106;2022-08-01T12:20:28;32.40;95.90
19586;DHT22;9939;49.246;9.106;2022-08-01T12:23:02;33.30;94.80
19586;DHT22;9939;49.246;9.106;2022-08-01T12:25:32;34.20;93.60
19586;DHT22;9939;49.246;9.106;2022-08-01T12:28:00;34.20;93.20
19586;DHT22;9939;49.246;9.106;2022-08-01T12:30:28;33.50;93.50
19586;DHT22;9939;49.246;9.106;2022-08-01T12:32:58;34.70;92.50
19586;DHT22;9939;49.246;9.106;2022-08-01T12:35:26;35.60;91.70
19586;DHT22;9939;49.246;9.106;2022-08-01T12:38:02;35.00;91.90
19586;DHT22;9939;49.246;9.106;2022-08-01T12:40:32;34.30;92.30
19586;DHT22;9939;49.246;9.106;2022-08-01T12:43:05;36.60;91.70
19586;DHT22;9939;49.246;9.106;2022-08-01T12:48:08;40.80;83.70
19586;DHT22;9939;49.246;9.106;2022-08-01T12:50:37;42.40;80.40
19586;DHT22;9939;49.246;9.106;2022-08-01T12:53:05;42.70;77.50
19586;DHT22;9939;49.246;9.106;2022-08-01T12:55:33;42.80;76.10
19586;DHT22;9939;49.246;9.106;2022-08-01T12:58:08;42.80;74.60
19586;DHT22;9939;49.246;9.106;2022-08-01T13:00:43;42.60;73.90
19586;DHT22;9939;49.246;9.106;2022-08-01T13:03:14;42.30;73.50
19586;DHT22;9939;49.246;9.106;2022-08-01T13:05:53;41.80;72.90
19586;DHT22;9939;49.246;9.106;2022-08-01T13:08:29;40.10;75.40
19586;DHT22;9939;49.246;9.106;2022-08-01T13:11:04;40.40;75.50
19586;DHT22;9939;49.246;9.106;2022-08-01T13:16:16;37.90;79.70
19586;DHT22;9939;49.246;9.106;2022-08-01T13:19:03;36.80;81.00
19586;DHT22;9939;49.246;9.106;2022-08-01T13:21:31;36.60;81.30
19586;DHT22;9939;49.246;9.106;2022-08-01T13:24:24;36.60;82.20
19586;DHT22;9939;49.246;9.106;2022-08-01T13:26:55;35.90;83.20
19586;DHT22;9939;49.246;9.106;2022-08-01T13:32:15;35.50;85.10
19586;DHT22;9939;49.246;9.106;2022-08-01T13:35:06;37.40;81.40
19586;DHT22;9939;49.246;9.106;2022-08-01T13:37:34;38.80;78.20
19586;DHT22;9939;49.246;9.106;2022-08-01T13:40:08;37.00;80.80
19586;DHT22;9939;49.246;9.106;2022-08-01T13:42:36;37.10;81.40
19586;DHT22;9939;49.246;9.106;2022-08-01T13:45:04;39.20;78.90
19586;DHT22;9939;49.246;9.106;2022-08-01T13:47:41;42.10;74.90
19586;DHT22;9939;49.246;9.106;2022-08-01T13:50:28;43.40;73.10
19586;DHT22;9939;49.246;9.106;2022-08-01T13:52:55;43.70;71.20
19586;DHT22;9939;49.246;9.106;2022-08-01T13:55:22;44.00;68.80
19586;DHT22;9939;49.246;9.106;2022-08-01T13:57:48;44.10;69.30
19586;DHT22;9939;49.246;9.106;2022-08-01T14:00:16;43.30;68.30
19586;DHT22;9939;49.246;9.106;2022-08-01T14:02:43;44.50;65.70
19586;DHT22;9939;49.246;9.106;2022-08-01T14:05:10;41.30;68.80
19586;DHT22;9939;49.246;9.106;2022-08-01T14:07:37;39.70;71.50
19586;DHT22;9939;49.246;9.106;2022-08-01T14:10:07;38.60;73.40
19586;DHT22;9939;49.246;9.106;2022-08-01T14:12:47;37.20;75.70
19586;DHT22;9939;49.246;9.106;2022-08-01T14:15:14;37.90;77.10
19586;DHT22;9939;49.246;9.106;2022-08-01T14:18:01;40.20;73.10
19586;DHT22;9939;49.246;9.106;2022-08-01T14:20:28;41.90;72.00
19586;DHT22;9939;49.246;9.106;2022-08-01T14:22:55;40.70;72.20
19586;DHT22;9939;49.246;9.106;2022-08-01T14:25:22;38.20;75.20
19586;DHT22;9939;49.246;9.106;2022-08-01T14:28:09;36.90;78.00
19586;DHT22;9939;49.246;9.106;2022-08-01T14:30:36;35.20;80.30
19586;DHT22;9939;49.246;9.106;2022-08-01T14:33:04;34.10;82.30
19586;DHT22;9939;49.246;9.106;2022-08-01T14:35:30;34.00;82.50
19586;DHT22;9939;49.246;9.106;2022-08-01T14:38:17;33.50;83.90
19586;DHT22;9939;49.246;9.106;2022-08-01T14:40:57;33.20;84.50
19586;DHT22;9939;49.246;9.106;2022-08-01T14:43:25;32.50;85.70
19586;DHT22;9939;49.246;9.106;2022-08-01T14:46:03;31.90;87.60
19586;DHT22;9939;49.246;9.106;2022-08-01T14:48:31;31.80;88.10
19586;DHT22;9939;49.246;9.106;2022-08-01T14:50:58;32.30;87.90
19586;DHT22;9939;49.246;9.106;2022-08-01T14:53:29;33.00;86.50
19586;DHT22;9939;49.246;9.106;2022-08-01T14:55:56;35.80;81.50
19586;DHT22;9939;49.246;9.106;2022-08-01T14:58:23;37.80;77.10
19586;DHT22;9939;49.246;9.106;2022-08-01T15:00:50;37.30;76.20
19586;DHT22;9939;49.246;9.106;2022-08-01T15:03:25;35.80;79.00
19586;DHT22;9939;49.246;9.106;2022-08-01T15:05:52;35.40;80.20
19586;DHT22;9939;49.246;9.106;2022-08-01T15:08:18;35.70;80.20
19586;DHT22;9939;49.246;9.106;2022-08-01T15:10:45;35.50;80.20
19586;DHT22;9939;49.246;9.106;2022-08-01T15:13:12;34.50;82.40
19586;DHT22;9939;49.246;9.106;2022-08-01T15:15:39;33.80;82.60
19586;DHT22;9939;49.246;9.106;2022-08-01T15:18:06;32.90;84.30
19586;DHT22;9939;49.246;9.106;2022-08-01T15:20:32;32.50;87.20
19586;DHT22;9939;49.246;9.106;2022-08-01T15:22:59;32.50;86.40
19586;DHT22;9939;49.246;9.106;2022-08-01T15:25:27;32.10;87.60
19586;DHT22;9939;49.246;9.106;2022-08-01T15:28:10;31.50;89.20
19586;DHT22;9939;49.246;9.106;2022-08-01T15:30:38;31.00;90.10
19586;DHT22;9939;49.246;9.106;2022-08-01T15:33:05;31.00;90.50
19586;DHT22;9939;49.246;9.106;2022-08-01T15:35:32;30.50;90.90
19586;DHT22;9939;49.246;9.106;2022-08-01T15:37:59;30.60;91.10
19586;DHT22;9939;49.246;9.106;2022-08-01T15:40:26;30.50;91.60
19586;DHT22;9939;49.246;9.106;2022-08-01T15:42:54;30.90;91.20
19586;DHT22;9939;49.246;9.106;2022-08-01T15:45:21;30.90;90.60
19586;DHT22;9939;49.246;9.106;2022-08-01T15:48:08;31.10;90.50
19586;DHT22;9939;49.246;9.106;2022-08-01T15:50:35;31.00;90.60
19586;DHT22;9939;49.246;9.106;2022-08-01T15:53:05;31.00;90.60
19586;DHT22;9939;49.246;9.106;2022-08-01T15:55:35;31.50;90.30
19586;DHT22;9939;49.246;9.106;2022-08-01T15:58:04;33.20;87.70
19586;DHT22;9939;49.246;9.106;2022-08-01T16:00:31;33.20;86.60
19586;DHT22;9939;49.246;9.106;2022-08-01T16:03:06;32.70;87.90
19586;DHT22;9939;49.246;9.106;2022-08-01T16:05:33;32.10;88.40
19586;DHT22;9939;49.246;9.106;2022-08-01T16:08:10;31.60;90.20
19586;DHT22;9939;49.246;9.106;2022-08-01T16:10:37;31.10;90.50
19586;DHT22;9939;49.246;9.106;2022-08-01T16:13:04;31.10;90.70
19586;DHT22;9939;49.246;9.106;2022-08-01T16:15:36;30.80;91.00
19586;DHT22;9939;49.246;9.106;2022-08-01T16:18:08;30.30;91.60
19586;DHT22;9939;49.246;9.106;2022-08-01T16:20:35;30.10;92.20
19586;DHT22;9939;49.246;9.106;2022-08-01T16:23:10;29.90;92.30
19586;DHT22;9939;49.246;9.106;2022-08-01T16:25:37;29.80;92.50
19586;DHT22;9939;49.246;9.106;2022-08-01T16:28:04;29.50;92.70
19586;DHT22;9939;49.246;9.106;2022-08-01T16:30:31;29.20;93.10
19586;DHT22;9939;49.246;9.106;2022-08-01T16:32:59;29.00;93.10
19586;DHT22;9939;49.246;9.106;2022-08-01T16:35:40;28.90;93.30
19586;DHT22;9939;49.246;9.106;2022-08-01T16:38:12;28.80;93.40
19586;DHT22;9939;49.246;9.106;2022-08-01T16:40:39;28.80;93.50
19586;DHT22;9939;49.246;9.106;2022-08-01T16:43:14;28.70;94.00
19586;DHT22;9939;49.246;9.106;2022-08-01T16:45:40;28.70;94.20
19586;DHT22;9939;49.246;9.106;2022-08-01T16:48:11;28.60;94.20
19586;DHT22;9939;49.246;9.106;2022-08-01T16:50:38;28.70;94.10
19586;DHT22;9939;49.246;9.106;2022-08-01T16:53:05;28.70;93.80
19586;DHT22;9939;49.246;9.106;2022-08-01T16:55:32;28.30;94.10